Green Gables, Louisiana
Current Conditions -  °F | °C
As of 12:03 PM on Saturday 20 Dec 2014 (Local Time) from KESF Reporting Station
Few Clouds Few Clouds  
Wind Chill: 51°   Ceiling: Unl
Heat Index: 51°   Visibility: 10mi
Dew Point: 43°   Wind: 7mph
Humidity: 74%   Direction: 60°ENE
Pressure: 30.2"   Gusts: NA
Location:  31.3398°N, 92.3739°W
Report Text: KESF 201803Z AUTO 06006KT 10SM FEW016 11/06 A3020 RMK AO2 T01060061
Loading
Personal Weather Stations






























Interactive Weather Map New forecast layout! Learn more

10-Day Weather Forecast

Advertisements
Track Severe Weather on mobile